createdAt,value
2019-01-02T00:01:20.213Z,4.53
2019-01-02T00:03:46.786Z,6.30
2019-01-02T00:06:13.008Z,6.40
2019-01-02T00:08:39.491Z,6.47
2019-01-02T00:11:05.778Z,7.07
2019-01-02T00:13:32.702Z,7.67
2019-01-02T00:15:58.954Z,4.87
2019-01-02T00:18:25.913Z,4.70
2019-01-02T00:20:52.081Z,7.50
2019-01-02T00:23:19.001Z,2.37
2019-01-02T00:25:45.165Z,6.63
2019-01-02T00:28:11.930Z,5.07
2019-01-02T00:30:38.056Z,3.53
2019-01-02T00:33:04.952Z,4.57
2019-01-02T00:35:31.151Z,6.90
2019-01-02T00:37:57.686Z,6.07
2019-01-02T00:40:23.842Z,4.27
2019-01-02T00:42:50.827Z,4.30
2019-01-02T00:45:22.336Z,8.43
2019-01-02T00:47:47.361Z,3.97
2019-01-02T00:50:13.616Z,5.43
2019-01-02T00:52:39.824Z,6.77
2019-01-02T00:55:07.126Z,5.00
2019-01-02T00:57:33.961Z,5.00
2019-01-02T01:00:00.181Z,7.40
2019-01-02T01:02:26.741Z,4.03
2019-01-02T01:04:53.269Z,5.40
2019-01-02T01:07:19.735Z,7.53
2019-01-02T01:09:45.940Z,9.13
2019-01-02T01:12:12.114Z,5.93
2019-01-02T01:14:38.321Z,5.47
2019-01-02T01:17:04.497Z,5.23
2019-01-02T01:19:30.688Z,9.03
2019-01-02T01:21:56.857Z,9.30
2019-01-02T01:24:23.369Z,6.43
2019-01-02T01:26:50.301Z,7.83
2019-01-02T01:29:16.601Z,5.90
2019-01-02T01:31:43.200Z,7.37
2019-01-02T01:34:09.583Z,8.40
2019-01-02T01:36:35.772Z,4.97
2019-01-02T01:39:06.011Z,5.10
2019-01-02T01:41:32.230Z,5.57
2019-01-02T01:43:58.997Z,6.93
2019-01-02T01:46:25.206Z,9.13
2019-01-02T01:48:51.408Z,6.17
2019-01-02T01:51:17.603Z,4.33
2019-01-02T01:53:43.810Z,8.73
2019-01-02T01:56:10.295Z,10.43
2019-01-02T01:58:36.789Z,9.63
2019-01-02T02:01:03.420Z,6.67
2019-01-02T02:03:29.629Z,7.63
2019-01-02T02:05:55.791Z,6.23
2019-01-02T02:08:22.738Z,8.53
2019-01-02T02:10:48.905Z,7.43
2019-01-02T02:13:15.503Z,9.43
2019-01-02T02:15:41.682Z,8.13
2019-01-02T02:18:07.875Z,5.77
2019-01-02T02:20:34.034Z,7.63
2019-01-02T02:23:00.262Z,8.70
2019-01-02T02:25:26.895Z,9.10
2019-01-02T02:27:53.163Z,8.03
2019-01-02T02:30:19.879Z,11.37
2019-01-02T02:32:46.078Z,5.50
2019-01-02T02:35:13.241Z,6.37
2019-01-02T02:37:39.430Z,8.27
2019-01-02T02:40:10.282Z,7.60
2019-01-02T02:42:36.469Z,9.40
2019-01-02T02:45:07.564Z,7.73
2019-01-02T02:47:34.050Z,8.10
2019-01-02T02:50:00.580Z,10.03
2019-01-02T02:52:26.824Z,9.33
2019-01-02T02:54:53.164Z,7.13
2019-01-02T02:57:19.579Z,6.53
2019-01-02T02:59:45.819Z,7.90
2019-01-02T03:02:11.983Z,5.83
2019-01-02T03:04:38.499Z,8.43
2019-01-02T03:07:05.090Z,7.07
2019-01-02T03:09:31.289Z,6.10
2019-01-02T03:11:57.529Z,5.00
2019-01-02T03:14:23.772Z,9.63
2019-01-02T03:16:50.241Z,8.13
2019-01-02T03:19:16.981Z,10.77
2019-01-02T03:21:43.906Z,5.07
2019-01-02T03:24:10.516Z,6.33
2019-01-02T03:26:36.701Z,7.17
2019-01-02T03:29:02.924Z,7.00
2019-01-02T03:31:29.378Z,7.60
2019-01-02T03:33:55.961Z,9.77
2019-01-02T03:36:22.143Z,5.73
2019-01-02T03:38:48.436Z,10.93
2019-01-02T03:41:15.103Z,5.40
2019-01-02T03:43:41.316Z,9.10
2019-01-02T03:46:07.541Z,8.90
2019-01-02T03:48:33.716Z,6.53
2019-01-02T03:51:00.230Z,7.50
2019-01-02T03:53:26.443Z,10.03
2019-01-02T03:55:52.751Z,12.53
2019-01-02T03:58:19.187Z,11.03
2019-01-02T04:00:45.412Z,8.87
2019-01-02T04:03:11.589Z,9.57
2019-01-02T04:05:37.800Z,7.40
2019-01-02T04:08:03.994Z,8.73
2019-01-02T04:10:30.259Z,5.40
2019-01-02T04:12:56.449Z,13.00
2019-01-02T04:15:22.698Z,9.10
2019-01-02T04:17:48.857Z,8.93
2019-01-02T04:20:15.106Z,10.97
2019-01-02T04:22:41.469Z,8.93
2019-01-02T04:25:07.751Z,6.80
2019-01-02T04:27:33.910Z,6.43
2019-01-02T04:30:00.174Z,7.37
2019-01-02T04:32:26.380Z,10.63
2019-01-02T04:34:52.564Z,7.93
2019-01-02T04:37:18.743Z,7.83
2019-01-02T04:39:44.995Z,9.23
2019-01-02T04:42:11.172Z,5.70
2019-01-02T04:44:37.368Z,8.67
2019-01-02T04:47:03.967Z,7.73
2019-01-02T04:49:30.350Z,9.93
2019-01-02T04:51:56.524Z,9.60
2019-01-02T04:54:22.709Z,11.83
2019-01-02T04:56:49.182Z,8.70
2019-01-02T04:59:15.363Z,10.93
2019-01-02T05:01:41.814Z,7.00
2019-01-02T05:04:08.325Z,6.90
2019-01-02T05:06:34.533Z,7.43
2019-01-02T05:09:00.733Z,11.13
2019-01-02T05:11:27.023Z,8.07
2019-01-02T05:13:53.238Z,8.03
2019-01-02T05:16:19.444Z,8.30
2019-01-02T05:18:46.067Z,7.73
2019-01-02T05:21:12.259Z,7.10
2019-01-02T05:23:38.431Z,6.67
2019-01-02T05:26:04.619Z,9.27
2019-01-02T05:28:31.092Z,7.00
2019-01-02T05:30:57.737Z,7.03
2019-01-02T05:33:23.897Z,8.37
2019-01-02T05:35:50.699Z,9.37
2019-01-02T05:38:16.890Z,3.77
2019-01-02T05:40:43.080Z,7.07
2019-01-02T05:43:09.264Z,6.37
2019-01-02T05:45:35.533Z,10.80
2019-01-02T05:48:01.655Z,5.47
2019-01-02T05:50:27.894Z,5.43
2019-01-02T05:52:54.091Z,6.30
2019-01-02T05:55:20.312Z,6.53
2019-01-02T05:57:46.859Z,6.00
2019-01-02T06:00:13.120Z,4.17
2019-01-02T06:02:39.372Z,4.87
2019-01-02T06:05:07.102Z,6.77
2019-01-02T06:07:33.612Z,9.20
2019-01-02T06:09:59.792Z,6.43
2019-01-02T06:12:26.376Z,5.77
2019-01-02T06:14:52.541Z,8.00
2019-01-02T06:17:18.759Z,5.10
2019-01-02T06:19:44.941Z,4.33
2019-01-02T06:22:11.139Z,6.10
2019-01-02T06:24:37.312Z,7.60
2019-01-02T06:27:03.569Z,4.17
2019-01-02T06:29:29.789Z,8.50
2019-01-02T06:31:55.988Z,4.33
2019-01-02T06:34:22.207Z,6.87
2019-01-02T06:36:48.436Z,5.43
2019-01-02T06:39:14.600Z,6.97
2019-01-02T06:41:40.808Z,5.07
2019-01-02T06:44:07.354Z,5.13
2019-01-02T06:46:33.578Z,3.60
2019-01-02T06:48:59.780Z,5.37
2019-01-02T06:51:26.043Z,4.90
2019-01-02T06:53:52.231Z,6.40
2019-01-02T06:56:18.461Z,7.13
2019-01-02T06:58:44.634Z,5.07
2019-01-02T07:01:10.805Z,3.77
2019-01-02T07:03:37.040Z,6.53
2019-01-02T07:06:03.302Z,5.27
2019-01-02T07:08:29.511Z,9.17
2019-01-02T07:10:55.697Z,7.37
2019-01-02T07:13:22.166Z,6.10
2019-01-02T07:15:48.319Z,6.83
2019-01-02T07:18:14.536Z,5.53
2019-01-02T07:20:40.744Z,4.10
2019-01-02T07:23:07.288Z,6.80
2019-01-02T07:25:33.452Z,3.83
2019-01-02T07:27:59.655Z,6.27
2019-01-02T07:30:25.816Z,5.23
2019-01-02T07:32:52.038Z,6.27
2019-01-02T07:35:42.039Z,5.73
2019-01-02T07:38:33.231Z,4.20
2019-01-02T07:41:19.323Z,4.13
2019-01-02T07:44:16.970Z,3.00
2019-01-02T07:47:09.955Z,4.50
2019-01-02T07:50:08.479Z,7.07
2019-01-02T07:52:51.843Z,5.53
2019-01-02T07:56:03.739Z,5.47
2019-01-02T07:58:56.592Z,4.63
2019-01-02T08:02:06.393Z,5.00
2019-01-02T08:04:50.709Z,5.97
2019-01-02T08:07:52.309Z,7.70
2019-01-02T08:11:00.472Z,4.23
2019-01-02T08:13:49.324Z,4.43
2019-01-02T08:16:36.758Z,6.80
2019-01-02T08:20:01.696Z,3.43
2019-01-02T08:23:03.084Z,7.10
2019-01-02T08:25:59.028Z,5.17
2019-01-02T08:28:30.958Z,4.17
2019-01-02T08:31:05.836Z,7.30
2019-01-02T08:33:58.730Z,8.77
2019-01-02T08:36:39.244Z,3.97
2019-01-02T08:39:37.929Z,3.73
2019-01-02T08:42:36.010Z,4.27
2019-01-02T08:45:31.725Z,4.80
2019-01-02T08:48:22.123Z,3.17
2019-01-02T08:51:47.671Z,6.20
2019-01-02T08:54:37.006Z,5.40
2019-01-02T08:57:26.719Z,3.70
2019-01-02T09:00:04.577Z,1.83
2019-01-02T09:02:54.196Z,3.30
2019-01-02T09:05:32.105Z,1.97
2019-01-02T09:08:20.895Z,3.60
2019-01-02T09:11:01.916Z,3.83
2019-01-02T09:13:51.228Z,2.83
2019-01-02T09:16:49.493Z,2.90
2019-01-02T09:19:42.708Z,2.90
2019-01-02T09:22:17.365Z,3.37
2019-01-02T09:24:52.238Z,2.90
2019-01-02T09:27:33.366Z,3.30
2019-01-02T09:30:46.472Z,3.70
2019-01-02T09:33:45.341Z,2.00
2019-01-02T09:36:31.785Z,2.93
2019-01-02T09:39:27.463Z,3.63
2019-01-02T09:42:11.611Z,2.30
2019-01-02T09:45:01.229Z,2.20
2019-01-02T09:47:53.645Z,2.60
2019-01-02T09:50:37.565Z,2.60
2019-01-02T09:53:23.969Z,4.13
2019-01-02T09:56:19.197Z,3.53
2019-01-02T09:59:00.326Z,4.00
2019-01-02T10:01:35.623Z,2.87
2019-01-02T10:04:42.289Z,2.70
2019-01-02T10:07:31.892Z,1.83
2019-01-02T10:10:18.995Z,2.30
2019-01-02T10:13:25.708Z,2.63
2019-01-02T10:16:08.906Z,3.33
2019-01-02T10:18:41.207Z,3.83
2019-01-02T10:21:42.748Z,3.23
2019-01-02T10:24:14.675Z,2.40
2019-01-02T10:27:02.036Z,2.10
2019-01-02T10:29:54.467Z,2.73
2019-01-02T10:32:32.148Z,2.90
2019-01-02T10:35:20.733Z,3.90
2019-01-02T10:38:08.067Z,2.50
2019-01-02T10:41:08.755Z,3.90
2019-01-02T10:44:07.345Z,2.33
2019-01-02T10:46:45.116Z,2.87
2019-01-02T10:49:33.978Z,1.83
2019-01-02T10:52:22.694Z,1.53
2019-01-02T10:55:11.548Z,2.43
2019-01-02T10:58:08.892Z,2.30
2019-01-02T11:01:18.326Z,1.90
2019-01-02T11:04:30.892Z,4.23
2019-01-02T11:07:24.236Z,1.83
2019-01-02T11:10:08.285Z,3.53
2019-01-02T11:12:58.095Z,2.50
2019-01-02T11:16:05.039Z,2.27
2019-01-02T11:19:27.670Z,3.37
2019-01-02T11:22:17.584Z,1.90
2019-01-02T11:24:55.022Z,2.83
2019-01-02T11:27:41.857Z,3.97
2019-01-02T11:30:40.762Z,1.20
2019-01-02T11:33:40.137Z,2.10
2019-01-02T11:36:59.225Z,2.13
2019-01-02T11:39:40.332Z,0.60
2019-01-02T11:42:45.353Z,1.27
2019-01-02T11:45:11.925Z,0.33
2019-01-02T11:47:38.086Z,0.20
2019-01-02T11:50:08.484Z,1.13
2019-01-02T11:52:34.657Z,0.50
2019-01-02T11:55:02.808Z,0.83
2019-01-02T11:57:28.977Z,0.50
2019-01-02T11:59:55.207Z,0.30
2019-01-02T12:02:21.406Z,0.43
2019-01-02T12:04:47.622Z,0.87
2019-01-02T12:07:13.795Z,0.47
2019-01-02T12:09:40.116Z,0.30
2019-01-02T12:12:06.289Z,0.60
2019-01-02T12:14:32.507Z,0.60
2019-01-02T12:16:58.676Z,0.40
2019-01-02T12:19:24.883Z,0.93
2019-01-02T12:21:51.199Z,1.20
2019-01-02T12:24:17.364Z,0.50
2019-01-02T12:26:43.571Z,0.80
2019-01-02T12:29:09.761Z,1.23
2019-01-02T12:31:36.209Z,1.63
2019-01-02T12:34:02.382Z,2.30
2019-01-02T12:36:28.976Z,0.83
2019-01-02T12:38:55.161Z,0.60
2019-01-02T12:41:21.372Z,1.77
2019-01-02T12:43:47.666Z,2.47
2019-01-02T12:46:13.885Z,1.13
2019-01-02T12:48:40.088Z,0.73
2019-01-02T12:51:06.441Z,0.73
2019-01-02T12:53:32.657Z,1.13
2019-01-02T12:56:18.734Z,1.93
2019-01-02T12:58:44.923Z,1.03
2019-01-02T13:01:13.664Z,1.10
2019-01-02T13:04:09.301Z,1.23
2019-01-02T13:06:58.564Z,2.00
2019-01-02T13:09:30.446Z,1.43
2019-01-02T13:12:11.524Z,3.10
2019-01-02T13:15:15.630Z,0.60
2019-01-02T13:18:08.259Z,1.50
2019-01-02T13:20:52.093Z,1.57
2019-01-02T13:23:41.502Z,0.90
2019-01-02T13:26:18.995Z,1.73
2019-01-02T13:29:20.740Z,1.17
2019-01-02T13:31:52.918Z,1.00
2019-01-02T13:34:39.604Z,2.37
2019-01-02T13:37:11.513Z,2.00
2019-01-02T13:40:16.174Z,1.23
2019-01-02T13:42:51.125Z,1.40
2019-01-02T13:45:28.366Z,2.10
2019-01-02T13:48:24.345Z,1.47
2019-01-02T13:50:56.303Z,0.87
2019-01-02T13:53:22.520Z,1.00
2019-01-02T13:55:48.780Z,0.87
2019-01-02T13:58:14.986Z,0.70
2019-01-02T14:00:41.192Z,0.80
2019-01-02T14:03:07.355Z,2.00
2019-01-02T14:05:34.968Z,1.10
2019-01-02T14:08:01.231Z,0.70
2019-01-02T14:10:27.449Z,0.60
2019-01-02T14:12:53.605Z,1.40
2019-01-02T14:15:19.766Z,0.60
2019-01-02T14:17:45.982Z,1.10
2019-01-02T14:20:12.155Z,1.13
2019-01-02T14:22:38.381Z,0.70
2019-01-02T14:25:05.347Z,2.37
2019-01-02T14:27:31.571Z,1.63
2019-01-02T14:29:57.742Z,2.93
2019-01-02T14:32:24.024Z,0.87
2019-01-02T14:34:50.205Z,1.63
2019-01-02T14:37:16.413Z,1.47
2019-01-02T14:39:42.995Z,6.50
2019-01-02T14:42:09.232Z,1.10
2019-01-02T14:44:35.413Z,1.57
2019-01-02T14:47:01.632Z,3.83
2019-01-02T14:49:27.964Z,1.30
2019-01-02T14:51:54.439Z,2.40
2019-01-02T14:54:20.616Z,1.23
2019-01-02T14:56:46.808Z,1.60
2019-01-02T14:59:13.288Z,1.73
2019-01-02T15:01:39.839Z,1.53
2019-01-02T15:04:06.055Z,1.70
2019-01-02T15:06:32.282Z,4.07
2019-01-02T15:08:58.447Z,1.40
2019-01-02T15:11:24.626Z,1.10
2019-01-02T15:13:50.880Z,1.50
2019-01-02T15:16:17.083Z,1.53
2019-01-02T15:18:44.044Z,4.97
2019-01-02T15:21:10.269Z,1.60
2019-01-02T15:23:36.427Z,1.00
2019-01-02T15:26:02.633Z,1.93
2019-01-02T15:28:28.810Z,1.80
2019-01-02T15:30:55.059Z,2.40
2019-01-02T15:33:21.248Z,1.87
2019-01-02T15:35:50.726Z,0.90
2019-01-02T15:38:16.917Z,1.20
2019-01-02T15:40:43.456Z,1.93
2019-01-02T15:43:10.052Z,2.27
2019-01-02T15:45:36.213Z,1.00
2019-01-02T15:48:02.432Z,1.33
2019-01-02T15:50:30.073Z,1.80
2019-01-02T15:52:56.555Z,1.43
2019-01-02T15:55:22.674Z,2.07
2019-01-02T15:57:48.879Z,1.70
2019-01-02T16:00:18.000Z,2.10
2019-01-02T16:02:44.219Z,1.50
2019-01-02T16:05:10.413Z,1.97
2019-01-02T16:07:42.318Z,1.03
2019-01-02T16:10:08.600Z,1.27
2019-01-02T16:12:34.818Z,1.83
2019-01-02T16:15:01.010Z,1.67
2019-01-02T16:17:27.227Z,1.47
2019-01-02T16:19:56.254Z,2.80
2019-01-02T16:22:22.407Z,1.73
2019-01-02T16:24:48.588Z,1.70
2019-01-02T16:27:14.792Z,0.90
2019-01-02T16:29:40.973Z,1.70
2019-01-02T16:32:07.318Z,1.20
2019-01-02T16:34:33.482Z,1.53
2019-01-02T16:37:00.041Z,1.43
2019-01-02T16:39:26.219Z,3.00
2019-01-02T16:41:52.714Z,1.67
2019-01-02T16:44:18.872Z,1.47
2019-01-02T16:46:45.066Z,1.67
2019-01-02T16:49:11.225Z,1.37
2019-01-02T16:51:37.402Z,1.37
2019-01-02T16:54:04.101Z,1.60
2019-01-02T16:56:30.261Z,2.17
2019-01-02T16:58:56.473Z,1.87
2019-01-02T17:01:22.655Z,2.27
2019-01-02T17:03:49.016Z,1.10
2019-01-02T17:06:15.201Z,0.93
2019-01-02T17:08:41.425Z,1.07
2019-01-02T17:11:07.599Z,3.07
2019-01-02T17:13:33.836Z,2.70
2019-01-02T17:16:00.266Z,1.73
2019-01-02T17:18:26.472Z,2.97
2019-01-02T17:20:52.649Z,2.37
2019-01-02T17:23:18.866Z,2.37
2019-01-02T17:25:45.027Z,1.90
2019-01-02T17:28:11.613Z,2.43
2019-01-02T17:30:37.896Z,2.67
2019-01-02T17:33:04.089Z,1.77
2019-01-02T17:35:30.353Z,1.30
2019-01-02T17:37:56.591Z,2.37
2019-01-02T17:40:22.802Z,2.00
2019-01-02T17:42:49.042Z,1.67
2019-01-02T17:45:15.222Z,2.80
2019-01-02T17:47:41.442Z,3.33
2019-01-02T17:50:08.526Z,2.10
2019-01-02T17:52:34.730Z,1.50
2019-01-02T17:55:00.939Z,3.07
2019-01-02T17:57:47.288Z,2.07
2019-01-02T18:00:13.562Z,1.60
2019-01-02T18:02:39.800Z,1.73
2019-01-02T18:05:05.985Z,1.57
2019-01-02T18:07:32.199Z,2.43
2019-01-02T18:09:58.759Z,1.80
2019-01-02T18:12:25.025Z,3.47
2019-01-02T18:14:51.249Z,2.43
2019-01-02T18:17:17.389Z,1.83
2019-01-02T18:19:43.899Z,1.80
2019-01-02T18:22:10.473Z,1.37
2019-01-02T18:24:36.703Z,2.47
2019-01-02T18:27:02.995Z,1.70
2019-01-02T18:29:29.572Z,0.93
2019-01-02T18:31:56.113Z,2.10
2019-01-02T18:34:22.320Z,2.40
2019-01-02T18:36:48.527Z,2.40
2019-01-02T18:39:14.829Z,3.20
2019-01-02T18:41:40.998Z,1.73
2019-01-02T18:44:07.375Z,3.03
2019-01-02T18:46:33.553Z,2.60
2019-01-02T18:48:59.758Z,4.90
2019-01-02T18:51:25.960Z,4.00
2019-01-02T18:53:52.186Z,1.43
2019-01-02T18:56:18.371Z,1.93
2019-01-02T18:58:45.252Z,2.13
2019-01-02T19:01:13.537Z,1.20
2019-01-02T19:03:39.747Z,1.40
2019-01-02T19:06:06.306Z,1.13
2019-01-02T19:08:32.774Z,2.13
2019-01-02T19:10:59.107Z,1.63
2019-01-02T19:13:25.316Z,1.00
2019-01-02T19:15:54.993Z,1.00
2019-01-02T19:18:23.165Z,2.07
2019-01-02T19:20:49.948Z,1.57
2019-01-02T19:23:16.749Z,2.20
2019-01-02T19:25:43.006Z,1.70
2019-01-02T19:28:09.178Z,2.13
2019-01-02T19:30:35.442Z,1.23
2019-01-02T19:33:01.999Z,0.87
2019-01-02T19:35:28.336Z,2.67
2019-01-02T19:37:54.515Z,1.60
2019-01-02T19:40:20.720Z,1.37
2019-01-02T19:42:50.729Z,1.90
2019-01-02T19:45:16.968Z,1.90
2019-01-02T19:48:03.036Z,2.47
2019-01-02T19:50:29.325Z,2.43
2019-01-02T19:53:13.485Z,1.47
2019-01-02T19:55:39.721Z,1.27
2019-01-02T19:58:06.400Z,1.00
2019-01-02T20:00:39.381Z,1.33
2019-01-02T20:03:05.697Z,1.20
2019-01-02T20:05:32.095Z,1.27
2019-01-02T20:07:58.279Z,2.47
2019-01-02T20:10:25.151Z,3.03
2019-01-02T20:12:54.194Z,0.83
2019-01-02T20:15:20.836Z,2.03
2019-01-02T20:17:47.238Z,0.93
2019-01-02T20:20:13.453Z,1.00
2019-01-02T20:22:39.657Z,1.00
2019-01-02T20:25:06.074Z,2.70
2019-01-02T20:27:32.747Z,2.00
2019-01-02T20:29:59.229Z,0.83
2019-01-02T20:32:25.452Z,1.10
2019-01-02T20:34:51.681Z,1.23
2019-01-02T20:37:17.850Z,1.33
2019-01-02T20:39:44.377Z,1.10
2019-01-02T20:42:10.602Z,0.87
2019-01-02T20:44:36.806Z,0.57
2019-01-02T20:47:03.095Z,0.97
2019-01-02T20:49:29.364Z,1.27
2019-01-02T20:51:55.816Z,0.60
2019-01-02T20:54:22.129Z,0.97
2019-01-02T20:56:48.584Z,0.70
2019-01-02T20:59:14.828Z,0.93
2019-01-02T21:01:41.277Z,1.03
2019-01-02T21:04:07.527Z,0.60
2019-01-02T21:06:33.971Z,1.17
2019-01-02T21:09:00.409Z,0.60
2019-01-02T21:11:26.844Z,1.10
2019-01-02T21:13:53.258Z,0.80
2019-01-02T21:16:19.645Z,1.37
2019-01-02T21:18:45.838Z,0.67
2019-01-02T21:21:12.293Z,0.60
2019-01-02T21:23:38.499Z,0.83
2019-01-02T21:26:04.833Z,0.67
2019-01-02T21:28:31.030Z,0.97
2019-01-02T21:30:57.456Z,1.90
2019-01-02T21:33:23.666Z,0.80
2019-01-02T21:36:09.729Z,0.83
2019-01-02T21:38:35.942Z,1.60
2019-01-02T21:41:02.157Z,1.17
2019-01-02T21:43:28.346Z,0.77
2019-01-02T21:45:59.852Z,1.20
2019-01-02T21:48:26.347Z,1.17
2019-01-02T21:50:52.564Z,0.83
2019-01-02T21:53:18.709Z,1.43
2019-01-02T21:55:44.917Z,1.17
2019-01-02T21:58:11.399Z,1.23
2019-01-02T22:00:37.594Z,1.80
2019-01-02T22:03:04.351Z,2.77
2019-01-02T22:05:30.613Z,0.73
2019-01-02T22:07:56.762Z,2.33
2019-01-02T22:10:23.000Z,1.17
2019-01-02T22:12:49.208Z,0.87
2019-01-02T22:15:15.402Z,1.20
2019-01-02T22:17:41.590Z,1.53
2019-01-02T22:20:08.010Z,1.67
2019-01-02T22:22:34.180Z,0.73
2019-01-02T22:25:00.454Z,1.77
2019-01-02T22:27:28.730Z,0.90
2019-01-02T22:29:55.129Z,1.40
2019-01-02T22:32:21.318Z,2.57
2019-01-02T22:34:47.530Z,1.67
2019-01-02T22:37:13.710Z,0.83
2019-01-02T22:39:39.941Z,2.20
2019-01-02T22:42:06.493Z,1.27
2019-01-02T22:44:32.714Z,1.13
2019-01-02T22:46:59.290Z,3.30
2019-01-02T22:49:25.533Z,1.47
2019-01-02T22:51:51.692Z,1.37
2019-01-02T22:54:17.922Z,1.60
2019-01-02T22:56:44.414Z,0.80
2019-01-02T22:59:10.718Z,2.13
2019-01-02T23:01:38.931Z,4.37
2019-01-02T23:04:09.940Z,1.50
2019-01-02T23:06:50.019Z,1.17
2019-01-02T23:09:18.220Z,1.20
2019-01-02T23:11:55.376Z,2.47
2019-01-02T23:14:29.730Z,2.33
2019-01-02T23:17:15.946Z,1.17
2019-01-02T23:20:00.870Z,1.17
2019-01-02T23:22:29.581Z,1.03
2019-01-02T23:25:14.165Z,3.23
2019-01-02T23:27:57.200Z,0.90
2019-01-02T23:30:25.390Z,1.83
2019-01-02T23:32:53.787Z,1.70
2019-01-02T23:35:24.548Z,0.73
2019-01-02T23:37:52.619Z,1.10
2019-01-02T23:40:35.666Z,1.57
2019-01-02T23:43:22.633Z,1.80
2019-01-02T23:45:50.785Z,1.10
2019-01-02T23:48:21.531Z,0.80
2019-01-02T23:51:06.343Z,3.73
2019-01-02T23:53:34.442Z,0.77
2019-01-02T23:56:05.643Z,1.10
2019-01-02T23:58:33.769Z,1.87
